Airfield :
LOGIN :

Register | Disclaimer

   EN    FR    IT 

 










Legend :    VFR   Marginal VFR   IFR   Intensive IFR   Very Intensive IFR
Visi :
Ceiling :
>= 8 km
>= 3000ft
5 to 8 km
1000 to 3000 ft
1500m to 5 km
500 to 1000 ft
800 to 1500m
200 to 500 ft
< 800m
< 200 ft
Symbols :   Thunderstorms  Fog  Heavy snow  Heavy precipitations  Wind > 20 kt
SIGMETs :     Misc.  Thunderstorms  Icing  Turbulence  Mountain Waves  Volcanic Ashes






- Airport Elevation : 1470 ft
- IATA code : KLU


LOWK - Klagenfurt

CURRENT METAR :
  • 250720Z AUTO VRB01KT 9999 FEW016 BKN017 M01/M03 Q1032 NOSIG

EXPIRED METARs :
  • 250650Z AUTO VRB02KT 9999 BKN017 M01/M03 Q1032 NOSIG
  • 250620Z AUTO VRB01KT 9999 BKN017 M01/M03 Q1032 NOSIG
  • 250550Z AUTO VRB01KT 9999 FEW017 BKN018 M01/M03 Q1032 NOSIG
  • 250520Z AUTO VRB01KT 9999 BKN018 M01/M03 Q1032
  • 250450Z AUTO VRB01KT 9999 FEW017 BKN018 M01/M03 Q1032

TAF TAF LOWK
Valid from the 25 at 06:00 until the 26 at 06:00 UTC


250515Z 2506/2606 VRB03KT 9999 BKN025 TX03/2514Z TNM05/2605Z
PROB30
TEMPO 2506/2510 BKN008
PROB40
TEMPO 2519/2606 4000 BKN012



MET'MAP, your aeronautical weather chart ! - Copyright ORBIFLY December 2007 - Disclaimer

ORBIFLY MET'MAP TEAM :

Programming & Development : Alexandra Zaïnal
Original concept : Baudouin d'Aumeries
Technical & hardware support : Manuel Goepfert
Assistance : Marc-Olivier Méhu

Contact : metmap@orbifly.com




SOURCES & CREDITS :

   NOAA